Time;durP1;ratioP1;P1;durP2;ratioP2;P2;SDS_P1;SDS_P2;PMS_P1;PMS_P2;Temp;Humidity;BMP_temperature;BMP_pressure;BME280_temperature;BME280_humidity;BME280_pressure;Samples;Min_cycle;Max_cycle;Signal;HPM_P1;HPM_P2
2023/09/26 00:02:23;;;;;;;10.68;7.30;;;;;;;12.59;100.00;102172.13;5094780;28;20060;-76
2023/09/26 00:04:48;;;;;;;15.05;7.47;;;;;;;12.54;100.00;102166.06;5093960;28;20479;-76
2023/09/26 00:07:14;;;;;;;9.80;6.72;;;;;;;12.43;100.00;102150.47;5094401;28;20024;-76
2023/09/26 00:09:39;;;;;;;8.35;6.70;;;;;;;12.40;100.00;102158.34;5094535;28;20020;-77
2023/09/26 00:12:04;;;;;;;8.05;6.53;;;;;;;12.34;100.00;102163.66;5095341;28;20107;-77
2023/09/26 00:14:30;;;;;;;8.82;7.05;;;;;;;12.24;100.00;102152.41;5094162;28;20093;-76
2023/09/26 00:16:55;;;;;;;12.57;6.85;;;;;;;12.25;100.00;102161.97;5093667;28;20052;-77
2023/09/26 00:19:21;;;;;;;7.90;6.03;;;;;;;12.21;100.00;102162.88;5094991;28;20031;-77
2023/09/26 00:21:47;;;;;;;7.63;6.00;;;;;;;12.18;100.00;102165.53;5087974;28;20421;-76
2023/09/26 00:24:12;;;;;;;9.82;6.50;;;;;;;12.12;100.00;102163.81;5094654;28;20024;-77
2023/09/26 00:26:38;;;;;;;10.32;6.32;;;;;;;12.08;100.00;102162.13;5094747;28;20082;-77
2023/09/26 00:29:03;;;;;;;9.65;6.70;;;;;;;12.10;100.00;102164.75;5094073;28;20103;-77
2023/09/26 00:31:29;;;;;;;8.32;6.47;;;;;;;12.04;100.00;102155.19;5094687;28;20032;-77
2023/09/26 00:33:54;;;;;;;9.07;5.90;;;;;;;12.02;100.00;102154.34;5094299;28;20028;-76
2023/09/26 00:36:19;;;;;;;9.00;6.32;;;;;;;12.02;100.00;102156.94;5094123;28;20025;-77
2023/09/26 00:38:44;;;;;;;8.85;6.88;;;;;;;12.02;100.00;102161.31;5088041;28;20059;-76
2023/09/26 00:41:10;;;;;;;8.93;6.30;;;;;;;12.01;100.00;102159.59;5094815;28;20486;-76
2023/09/26 00:43:35;;;;;;;10.27;6.50;;;;;;;11.93;100.00;102155.31;5091090;28;20027;-77
2023/09/26 00:46:03;;;;;;;11.77;7.15;;;;;;;11.96;100.00;102162.22;5094606;28;20024;-76
2023/09/26 00:48:29;;;;;;;12.18;7.20;;;;;;;11.88;100.00;102154.47;5094567;28;20168;-76
2023/09/26 00:50:56;;;;;;;10.35;6.90;;;;;;;11.89;100.00;102166.63;5092968;28;20068;-77
2023/09/26 00:53:24;;;;;;;11.38;6.90;;;;;;;11.90;100.00;102172.72;5094167;28;20028;-77
2023/09/26 00:55:53;;;;;;;10.48;7.07;;;;;;;11.87;100.00;102155.34;5085870;28;20380;-76
2023/09/26 00:58:21;;;;;;;9.85;7.07;;;;;;;11.88;100.00;102164.03;5093455;28;20368;-76
2023/09/26 01:00:53;;;;;;;11.57;8.00;;;;;;;11.87;100.00;102151.84;5075426;28;20066;-76
2023/09/26 01:03:18;;;;;;;12.38;7.55;;;;;;;11.88;100.00;102156.22;5094301;28;20024;-77
2023/09/26 01:05:44;;;;;;;12.70;7.97;;;;;;;11.89;100.00;102152.72;5093174;28;20024;-76
2023/09/26 01:08:09;;;;;;;11.30;7.90;;;;;;;11.86;100.00;102139.66;5094142;28;20064;-76
2023/09/26 01:10:36;;;;;;;11.65;7.47;;;;;;;11.87;100.00;102151.84;5092743;28;20542;-76
2023/09/26 01:13:02;;;;;;;12.98;8.30;;;;;;;11.83;100.00;102140.50;5093169;28;20020;-76
2023/09/26 01:15:36;;;;;;;9.52;7.95;;;;;;;11.86;100.00;102147.50;5092981;28;20036;-77
2023/09/26 01:18:13;;;;;;;11.50;7.60;;;;;;;11.84;100.00;102142.31;5093150;28;20035;-76
2023/09/26 01:20:43;;;;;;;11.60;8.13;;;;;;;11.82;100.00;102141.41;5091230;28;20024;-76
2023/09/26 01:23:10;;;;;;;11.80;8.88;;;;;;;11.80;100.00;102145.75;5093848;28;20020;-76
2023/09/26 01:25:36;;;;;;;11.20;8.18;;;;;;;11.80;100.00;102145.75;5092689;28;20095;-76
2023/09/26 01:28:07;;;;;;;9.80;8.23;;;;;;;11.82;100.00;102153.59;5093998;28;20149;-76
2023/09/26 01:30:39;;;;;;;15.35;9.57;;;;;;;11.77;100.00;102150.16;5092609;28;20036;-77
2023/09/26 01:33:16;;;;;;;12.10;8.98;;;;;;;11.80;100.00;102152.75;5093020;28;20149;-76
2023/09/26 01:35:42;;;;;;;11.60;8.82;;;;;;;11.78;100.00;102152.75;5091033;28;20024;-76
2023/09/26 01:38:08;;;;;;;10.93;8.10;;;;;;;11.79;100.00;102153.63;5093635;28;20023;-76
2023/09/26 01:40:33;;;;;;;13.40;8.63;;;;;;;11.78;100.00;102141.44;5092406;28;20102;-77
2023/09/26 01:42:58;;;;;;;9.90;8.55;;;;;;;11.78;100.00;102147.53;5091235;28;20502;-76
2023/09/26 01:45:24;;;;;;;14.38;8.93;;;;;;;11.77;100.00;102145.81;5093277;28;20063;-76
2023/09/26 01:47:51;;;;;;;9.85;8.45;;;;;;;11.70;100.00;102138.88;5091127;28;20028;-77
2023/09/26 01:50:18;;;;;;;14.75;8.93;;;;;;;11.76;100.00;102148.44;5093044;28;20098;-76
2023/09/26 01:52:44;;;;;;;10.98;9.15;;;;;;;11.68;100.00;102138.91;5091871;28;20024;-78
2023/09/26 01:55:14;;;;;;;12.50;9.27;;;;;;;11.67;100.00;102138.91;5085439;28;20032;-77
2023/09/26 01:57:39;;;;;;;11.75;8.75;;;;;;;11.64;100.00;102139.81;5084301;28;20031;-77
2023/09/26 02:00:10;;;;;;;11.13;9.18;;;;;;;11.67;100.00;102141.50;5085870;28;20103;-77
2023/09/26 02:02:38;;;;;;;12.60;8.70;;;;;;;11.65;100.00;102140.69;5085376;28;20101;-76
2023/09/26 02:05:03;;;;;;;9.63;8.00;;;;;;;11.65;100.00;102143.28;5092793;28;20028;-77
2023/09/26 02:07:29;;;;;;;11.05;9.00;;;;;;;11.61;100.00;102134.59;5092403;28;20111;-77
2023/09/26 02:09:54;;;;;;;10.43;8.00;;;;;;;11.59;100.00;102131.13;5092745;28;20032;-76
2023/09/26 02:12:19;;;;;;;12.48;8.93;;;;;;;11.61;100.00;102138.97;5084825;28;20054;-76
2023/09/26 02:14:45;;;;;;;14.82;9.32;;;;;;;11.58;100.00;102131.16;5091815;28;20024;-76
2023/09/26 02:17:10;;;;;;;10.38;8.40;;;;;;;11.54;100.00;102132.03;5092630;28;20498;-76
2023/09/26 02:19:36;;;;;;;13.40;8.20;;;;;;;11.56;100.00;102130.28;5092322;28;20046;-76
2023/09/26 02:22:02;;;;;;;12.68;9.07;;;;;;;11.53;100.00;102125.94;5090796;28;20024;-76
2023/09/26 02:24:27;;;;;;;12.80;9.27;;;;;;;11.53;100.00;102125.09;5092842;28;20023;-76
2023/09/26 02:26:56;;;;;;;13.63;9.93;;;;;;;11.47;100.00;102108.56;5092291;28;20035;-76
2023/09/26 02:29:23;;;;;;;12.10;9.38;;;;;;;11.50;100.00;102128.56;5089770;28;20056;-76
2023/09/26 02:31:49;;;;;;;12.13;9.52;;;;;;;11.49;100.00;102125.09;5091964;28;20548;-76
2023/09/26 02:34:14;;;;;;;11.70;8.90;;;;;;;11.49;100.00;102126.84;5092677;28;20028;-76
2023/09/26 02:36:39;;;;;;;12.68;9.80;;;;;;;11.48;100.00;102127.75;5090986;28;20102;-76
2023/09/26 02:39:05;;;;;;;11.48;9.00;;;;;;;11.49;100.00;102129.47;5092287;28;20357;-76
2023/09/26 02:41:30;;;;;;;12.25;9.10;;;;;;;11.47;100.00;102128.59;5092189;28;20082;-77
2023/09/26 02:43:58;;;;;;;14.45;9.65;;;;;;;11.43;100.00;102119.91;5091269;28;20028;-76
2023/09/26 02:46:23;;;;;;;11.20;9.55;;;;;;;11.43;100.00;102117.31;5092576;28;20032;-76
2023/09/26 02:48:48;;;;;;;12.88;10.07;;;;;;;11.44;100.00;102120.78;5091828;28;20647;-76
2023/09/26 02:51:13;;;;;;;13.07;9.25;;;;;;;11.42;100.00;102112.97;5083130;28;20063;-76
2023/09/26 02:53:39;;;;;;;12.60;10.05;;;;;;;11.37;100.00;102104.28;5082158;28;20371;-76
2023/09/26 02:56:09;;;;;;;11.60;9.63;;;;;;;11.39;100.00;102106.91;5073418;28;20077;-76
2023/09/26 02:58:34;;;;;;;10.95;9.02;;;;;;;11.39;100.00;102107.75;5083627;28;20031;-77
2023/09/26 03:01:00;;;;;;;11.65;9.57;;;;;;;11.38;100.00;102099.94;5083465;28;20032;-76
2023/09/26 03:03:26;;;;;;;14.88;10.00;;;;;;;11.32;100.00;102093.03;5078235;28;20058;-76
2023/09/26 03:05:53;;;;;;;12.32;10.20;;;;;;;11.34;100.00;102098.22;5081400;28;20435;-76
2023/09/26 03:08:18;;;;;;;14.23;10.80;;;;;;;11.33;100.00;102088.66;5083728;28;20382;-76
2023/09/26 03:10:43;;;;;;;13.65;11.30;;;;;;;11.31;100.00;102082.56;5080228;28;20032;-76
2023/09/26 03:13:09;;;;;;;14.27;11.70;;;;;;;11.28;100.00;102080.88;5082723;28;20045;-76
2023/09/26 03:15:34;;;;;;;14.25;11.15;;;;;;;11.30;100.00;102091.28;5083347;28;20098;-77
2023/09/26 03:18:00;;;;;;;18.63;12.43;;;;;;;11.26;100.00;102100.88;5081308;28;20379;-76
2023/09/26 03:20:25;;;;;;;13.07;11.65;;;;;;;11.23;100.00;102096.53;5082598;28;20464;-76
2023/09/26 03:22:51;;;;;;;17.27;12.70;;;;;;;11.19;100.00;102079.19;5083386;28;20024;-76
2023/09/26 03:25:16;;;;;;;16.65;12.18;;;;;;;11.20;100.00;102086.13;5081264;28;20078;-77
2023/09/26 03:27:46;;;;;;;14.88;12.15;;;;;;;11.14;100.00;102094.00;5084992;28;20028;-77
2023/09/26 03:30:15;;;;;;;17.23;12.32;;;;;;;11.14;100.00;102090.50;5077490;28;20169;-77
2023/09/26 03:32:40;;;;;;;15.50;12.50;;;;;;;11.10;100.00;102089.66;5087435;28;20390;-76
2023/09/26 03:35:06;;;;;;;14.77;12.60;;;;;;;11.13;100.00;102088.78;5083902;28;20028;-76
2023/09/26 03:37:32;;;;;;;14.43;12.82;;;;;;;11.09;100.00;102079.25;5091415;28;20032;-76
2023/09/26 03:39:57;;;;;;;17.95;13.02;;;;;;;11.07;100.00;102087.06;5082971;28;20024;-76
2023/09/26 03:42:23;;;;;;;15.63;12.70;;;;;;;11.10;100.00;102087.06;5089978;28;20024;-76
2023/09/26 03:44:48;;;;;;;16.42;13.07;;;;;;;11.09;100.00;102092.31;5086848;28;20149;-76
2023/09/26 03:47:14;;;;;;;16.23;13.50;;;;;;;11.07;100.00;102091.44;5083982;28;20028;-77
2023/09/26 03:49:39;;;;;;;15.02;13.38;;;;;;;11.04;100.00;102091.44;5085184;28;20097;-76
2023/09/26 03:52:04;;;;;;;14.90;12.95;;;;;;;11.02;100.00;102094.94;5087672;28;20051;-76
2023/09/26 03:54:30;;;;;;;15.88;13.10;;;;;;;10.99;100.00;102089.75;5086160;28;20040;-77
2023/09/26 03:56:55;;;;;;;19.05;13.93;;;;;;;10.97;100.00;102090.63;5086286;28;20086;-76
2023/09/26 03:59:21;;;;;;;17.52;14.10;;;;;;;10.91;100.00;102078.47;5086156;28;20031;-77
2023/09/26 04:01:47;;;;;;;16.83;13.48;;;;;;;10.83;100.00;102064.59;5084642;28;20028;-76
2023/09/26 04:04:13;;;;;;;17.83;13.35;;;;;;;10.85;100.00;102072.41;5078844;28;20031;-76
2023/09/26 04:06:38;;;;;;;16.02;13.63;;;;;;;10.85;100.00;102083.69;5087910;28;20417;-76
2023/09/26 04:09:04;;;;;;;19.10;13.88;;;;;;;10.81;100.00;102084.59;5084575;28;20024;-76
2023/09/26 04:11:29;;;;;;;16.50;12.65;;;;;;;10.84;100.00;102084.59;5087120;28;20106;-76
2023/09/26 04:13:55;;;;;;;19.45;13.50;;;;;;;10.82;100.00;102088.94;5085773;28;20028;-76
2023/09/26 04:16:20;;;;;;;15.65;12.98;;;;;;;10.79;100.00;102078.53;5085040;28;20432;-76
2023/09/26 04:18:45;;;;;;;18.42;13.20;;;;;;;10.81;100.00;102083.72;5084408;28;20454;-76
2023/09/26 04:21:11;;;;;;;19.85;13.93;;;;;;;10.78;100.00;102079.41;5080814;28;20750;-76
2023/09/26 04:23:36;;;;;;;16.10;12.98;;;;;;;10.79;100.00;102073.31;5085825;28;20028;-76
2023/09/26 04:26:15;;;;;;;19.20;13.60;;;;;;;10.81;100.00;102070.69;5085726;28;20024;-76
2023/09/26 04:28:44;;;;;;;19.80;14.02;;;;;;;10.76;100.00;102055.94;5075652;28;20024;-77
2023/09/26 04:31:16;;;;;;;18.45;13.80;;;;;;;10.83;100.00;102059.38;5085442;28;20028;-76
2023/09/26 04:33:41;;;;;;;14.15;12.65;;;;;;;10.82;100.00;102062.84;5075194;28;20073;-76
2023/09/26 04:36:06;;;;;;;16.70;12.77;;;;;;;10.79;100.00;102057.66;5078275;28;20025;-77
2023/09/26 04:38:32;;;;;;;15.68;13.88;;;;;;;10.81;100.00;102060.25;5083958;28;20029;-76
2023/09/26 04:41:01;;;;;;;18.83;14.02;;;;;;;10.79;100.00;102057.66;5086218;28;20026;-76
2023/09/26 04:43:26;;;;;;;16.65;13.25;;;;;;;10.81;100.00;102066.34;5087238;28;20013;-76
2023/09/26 04:45:51;;;;;;;17.95;14.32;;;;;;;10.84;100.00;102058.50;5085978;28;20017;-77
2023/09/26 04:48:17;;;;;;;16.92;14.30;;;;;;;10.83;100.00;102042.88;5086754;28;20365;-77
2023/09/26 04:50:42;;;;;;;17.30;13.63;;;;;;;10.89;100.00;102051.53;5082733;28;20055;-76
2023/09/26 04:53:07;;;;;;;16.90;14.00;;;;;;;10.90;100.00;102042.81;5084972;28;20032;-77
2023/09/26 04:55:36;;;;;;;16.60;14.02;;;;;;;10.93;100.00;102037.59;5081461;28;20036;-76
2023/09/26 04:58:01;;;;;;;16.50;14.50;;;;;;;10.96;100.00;102041.94;5074752;28;20032;-76
2023/09/26 05:00:28;;;;;;;15.95;12.98;;;;;;;10.95;100.00;102041.06;5082407;28;20089;-76
2023/09/26 05:02:53;;;;;;;17.45;13.50;;;;;;;10.95;100.00;102041.06;5082322;28;20124;-76
2023/09/26 05:05:21;;;;;;;19.42;12.90;;;;;;;10.98;100.00;102037.53;5085767;28;20478;-77
2023/09/26 05:07:48;;;;;;;19.40;13.57;;;;;;;11.02;100.00;102050.56;5083670;28;20380;-77
2023/09/26 05:10:14;;;;;;;15.48;13.48;;;;;;;11.07;100.00;102049.69;5068858;28;20024;-76
2023/09/26 05:12:40;;;;;;;16.83;13.02;;;;;;;11.06;100.00;102040.97;5085222;28;20033;-77
2023/09/26 05:15:15;;;;;;;18.42;12.60;;;;;;;11.09;100.00;102045.31;5083793;28;20020;-77
2023/09/26 05:17:47;;;;;;;14.63;13.05;;;;;;;11.07;100.00;102040.09;5085163;28;20024;-77
2023/09/26 05:20:12;;;;;;;19.63;13.95;;;;;;;11.07;100.00;102044.47;5080497;28;20065;-76
2023/09/26 05:22:41;;;;;;;14.88;12.95;;;;;;;11.05;100.00;102044.44;5074610;28;20027;-77
2023/09/26 05:25:06;;;;;;;19.48;12.70;;;;;;;11.02;100.00;102045.38;5078105;28;20451;-77
2023/09/26 05:27:32;;;;;;;16.70;13.93;;;;;;;11.03;100.00;102048.84;5079544;28;20024;-76
2023/09/26 05:29:58;;;;;;;18.70;13.65;;;;;;;11.00;100.00;102041.88;5080899;28;20051;-76
2023/09/26 05:32:23;;;;;;;20.10;13.30;;;;;;;10.99;100.00;102040.16;5079450;28;20482;-76
2023/09/26 05:34:48;;;;;;;14.05;11.90;;;;;;;10.96;100.00;102028.88;5082868;28;20029;-76
2023/09/26 05:37:14;;;;;;;17.13;12.40;;;;;;;10.97;100.00;102041.91;5080543;28;20036;-76
2023/09/26 05:39:39;;;;;;;15.88;12.00;;;;;;;10.94;100.00;102034.09;5085875;28;20099;-76
2023/09/26 05:42:04;;;;;;;17.75;13.57;;;;;;;10.92;100.00;102042.78;5078105;28;20036;-77
2023/09/26 05:44:30;;;;;;;17.58;13.25;;;;;;;10.95;100.00;102051.50;5077502;28;20523;-76
2023/09/26 05:46:56;;;;;;;16.73;12.80;;;;;;;10.95;100.00;102055.81;5082096;28;20025;-76
2023/09/26 05:49:22;;;;;;;20.00;13.10;;;;;;;10.96;100.00;102054.97;5088944;28;20062;-77
2023/09/26 05:51:47;;;;;;;16.15;12.95;;;;;;;10.99;100.00;102057.56;5080223;28;20494;-76
2023/09/26 05:54:13;;;;;;;16.90;12.90;;;;;;;11.07;100.00;102050.53;5089077;28;20020;-76
2023/09/26 05:56:38;;;;;;;21.92;13.45;;;;;;;11.15;100.00;102063.53;5080890;28;20475;-76
2023/09/26 05:59:04;;;;;;;19.38;12.98;;;;;;;11.22;100.00;102062.63;5086660;28;20028;-76
2023/09/26 06:01:29;;;;;;;16.65;12.63;;;;;;;11.26;100.00;102053.91;5072112;28;20025;-76
2023/09/26 06:03:54;;;;;;;20.08;13.55;;;;;;;11.38;100.00;102053.81;5080299;28;20029;-77
2023/09/26 06:06:20;;;;;;;15.73;12.10;;;;;;;11.45;100.00;102060.72;5080905;28;20029;-76
2023/09/26 06:08:46;;;;;;;15.35;12.82;;;;;;;11.54;100.00;102049.31;5087656;28;20028;-76
2023/09/26 06:11:11;;;;;;;15.57;11.88;;;;;;;11.62;100.00;102057.09;5081298;28;20123;-77
2023/09/26 06:13:38;;;;;;;16.75;12.15;;;;;;;11.69;100.00;102051.81;5086692;28;20102;-76
2023/09/26 06:16:04;;;;;;;18.55;12.48;;;;;;;11.75;100.00;102044.81;5080885;28;20021;-76
2023/09/26 06:18:30;;;;;;;15.13;12.52;;;;;;;11.86;100.00;102051.69;5086784;28;20112;-76
2023/09/26 06:20:55;;;;;;;14.90;11.68;;;;;;;11.92;100.00;102054.25;5072104;28;20484;-76
2023/09/26 06:23:21;;;;;;;14.52;11.85;;;;;;;11.90;100.00;102042.97;5085142;28;20035;-76
2023/09/26 06:25:56;;;;;;;16.38;11.23;;;;;;;12.04;100.00;102044.56;5083845;28;20024;-76
2023/09/26 06:28:21;;;;;;;15.80;11.38;;;;;;;12.03;100.00;102033.22;5083205;28;20039;-76
2023/09/26 06:30:47;;;;;;;14.95;11.50;;;;;;;12.07;100.00;102029.72;5083740;28;20024;-76
2023/09/26 06:33:12;;;;;;;17.42;11.00;;;;;;;12.08;100.00;102028.81;5083022;28;20029;-76
2023/09/26 06:35:37;;;;;;;16.02;11.30;;;;;;;12.15;100.00;102029.63;5083057;28;20456;-77
2023/09/26 06:38:03;;;;;;;14.88;11.27;;;;;;;12.17;100.00;102041.78;5068324;28;20071;-77
2023/09/26 06:40:29;;;;;;;16.60;11.18;;;;;;;12.20;100.00;102035.69;5079496;28;20020;-76
2023/09/26 06:42:56;;;;;;;17.63;11.27;;;;;;;12.28;100.00;102041.66;5082822;28;20041;-76
2023/09/26 06:45:22;;;;;;;14.57;11.73;;;;;;;12.34;100.00;102038.13;5072531;28;20028;-76
2023/09/26 06:47:47;;;;;;;18.00;11.02;;;;;;;12.38;100.00;102052.88;5056136;28;20036;-76
2023/09/26 06:50:13;;;;;;;14.10;10.70;;;;;;;12.38;100.00;102045.91;5068930;28;20144;-76
2023/09/26 06:52:38;;;;;;;14.80;11.00;;;;;;;12.48;100.00;102051.03;5080782;28;20021;-76
2023/09/26 06:55:09;;;;;;;14.27;10.82;;;;;;;12.52;100.00;102043.13;5078712;28;20027;-76
2023/09/26 06:57:35;;;;;;;15.15;10.95;;;;;;;12.52;100.00;102037.88;5081878;28;20486;-76
2023/09/26 07:00:04;;;;;;;13.80;10.05;;;;;;;12.54;100.00;102053.56;5090530;28;20036;-76
2023/09/26 07:02:30;;;;;;;13.82;10.82;;;;;;;12.59;100.00;102046.53;5078718;28;20111;-76
2023/09/26 07:04:56;;;;;;;14.43;10.43;;;;;;;12.63;100.00;102048.22;5085278;28;20523;-76
2023/09/26 07:07:22;;;;;;;14.27;9.82;;;;;;;12.70;100.00;102051.63;5091628;28;20028;-76
2023/09/26 07:09:48;;;;;;;12.38;9.48;;;;;;;12.81;100.00;102050.59;5090561;28;20039;-76
2023/09/26 07:12:13;;;;;;;13.57;9.23;;;;;;;12.93;100.00;102049.56;5094312;28;20394;-76
2023/09/26 07:14:38;;;;;;;11.20;8.93;;;;;;;13.07;100.00;102047.59;5091830;28;20031;-76
2023/09/26 07:17:04;;;;;;;14.48;9.70;;;;;;;13.18;100.00;102044.84;5093663;28;20516;-76
2023/09/26 07:19:31;;;;;;;13.13;9.35;;;;;;;13.22;100.00;102038.66;5096114;28;20085;-76
2023/09/26 07:21:57;;;;;;;15.55;10.15;;;;;;;13.29;100.00;102036.84;5093276;28;20429;-76
2023/09/26 07:24:22;;;;;;;12.75;9.38;;;;;;;13.32;100.00;102037.66;5095093;28;20020;-75
2023/09/26 07:26:47;;;;;;;10.77;8.90;;;;;;;13.42;100.00;102042.75;5095739;28;20032;-76
2023/09/26 07:29:13;;;;;;;11.80;9.63;;;;;;;13.54;100.00;102032.09;5095498;28;20520;-76
2023/09/26 07:31:39;;;;;;;13.95;9.73;;;;;;;13.65;100.00;102030.13;5094893;28;20035;-76
2023/09/26 07:34:04;;;;;;;13.75;9.73;;;;;;;13.79;100.00;102037.75;5095682;28;20031;-76
2023/09/26 07:36:32;;;;;;;11.32;9.70;;;;;;;13.98;100.00;102039.16;5095605;28;20040;-75
2023/09/26 07:38:57;;;;;;;13.20;8.65;;;;;;;14.11;100.00;102031.91;5095242;28;20065;-76
2023/09/26 07:41:22;;;;;;;12.82;8.68;;;;;;;14.18;100.00;102037.91;5095800;28;20441;-75
2023/09/26 07:43:48;;;;;;;13.43;8.98;;;;;;;14.26;100.00;102039.50;5071199;28;20468;-76
2023/09/26 07:46:14;;;;;;;15.02;8.88;;;;;;;14.32;100.00;102035.00;5093606;28;20032;-76
2023/09/26 07:48:40;;;;;;;12.07;8.98;;;;;;;14.34;100.00;102027.97;5086809;28;20029;-76
2023/09/26 07:51:06;;;;;;;11.20;8.60;;;;;;;14.45;100.00;102042.63;5077162;28;20484;-76
2023/09/26 07:53:32;;;;;;;14.50;8.40;;;;;;;14.50;100.00;102037.25;5087603;28;20033;-76
2023/09/26 07:55:58;;;;;;;10.23;7.82;;;;;;;14.48;100.00;102034.66;5086886;28;20528;-75
2023/09/26 07:58:23;;;;;;;11.45;8.02;;;;;;;14.51;100.00;102039.00;5074939;28;20033;-76
2023/09/26 08:25:49;;;;;;;7.45;6.55;;;;;;;15.62;100.00;102019.78;5036884;28;20392;-77
2023/09/26 08:28:16;;;;;;;10.65;6.95;;;;;;;15.71;100.00;102026.63;5064162;28;20051;-77
2023/09/26 08:30:41;;;;;;;8.98;7.13;;;;;;;15.94;100.00;102023.38;5050927;28;20044;-77
2023/09/26 08:33:07;;;;;;;9.00;7.22;;;;;;;16.10;100.00;102019.41;5061526;28;20400;-77
2023/09/26 08:35:32;;;;;;;8.52;6.70;;;;;;;16.22;100.00;102017.34;5048899;28;20033;-77
2023/09/26 08:37:57;;;;;;;12.30;6.75;;;;;;;16.35;100.00;102024.88;5062033;28;20115;-77
2023/09/26 08:40:26;;;;;;;8.82;6.20;;;;;;;16.52;100.00;102018.25;5050060;28;20035;-77
2023/09/26 08:42:56;;;;;;;9.73;6.68;;;;;;;16.75;100.00;102014.94;5064716;28;20031;-77
2023/09/26 08:45:25;;;;;;;9.40;6.50;;;;;;;16.88;100.00;102012.81;5049698;28;20069;-77
2023/09/26 08:47:53;;;;;;;9.45;6.28;;;;;;;16.98;100.00;102003.69;5066504;28;20049;-77
2023/09/26 08:50:18;;;;;;;8.30;5.78;;;;;;;17.12;100.00;102001.47;5049692;28;20061;-77
2023/09/26 08:52:44;;;;;;;8.80;6.05;;;;;;;17.26;100.00;101998.38;5039279;28;20101;-77
2023/09/26 08:55:09;;;;;;;8.43;5.78;;;;;;;17.30;100.00;101997.38;5052257;28;20029;-77
2023/09/26 08:57:36;;;;;;;6.63;5.18;;;;;;;17.48;100.00;102001.16;5039015;28;20045;-77
2023/09/26 09:00:03;;;;;;;8.45;5.82;;;;;;;17.52;100.00;102001.00;5055438;28;20084;-78
2023/09/26 09:02:32;;;;;;;8.10;5.50;;;;;;;17.65;100.00;102013.78;5038882;28;20041;-77
2023/09/26 09:04:58;;;;;;;8.63;4.72;;;;;;;17.72;100.00;101991.53;5056438;28;20020;-77
2023/09/26 09:07:24;;;;;;;7.25;5.13;;;;;;;17.90;100.00;102001.50;5038168;28;20057;-77
2023/09/26 09:10:13;;;;;;;7.68;5.20;;;;;;;18.06;100.00;101996.53;5055773;28;20474;-77
2023/09/26 09:12:44;;;;;;;8.00;4.70;;;;;;;18.12;100.00;101998.09;5037324;28;20029;-77
2023/09/26 09:15:15;;;;;;;5.95;4.18;;;;;;;18.23;100.00;101995.91;5055456;28;20072;-77
2023/09/26 09:17:47;;;;;;;6.93;4.55;;;;;;;18.34;100.00;101992.84;5027271;28;20041;-77
2023/09/26 09:20:16;;;;;;;7.72;4.93;;;;;;;18.39;100.00;102004.97;5042064;28;20451;-76
2023/09/26 09:22:48;;;;;;;10.88;5.60;;;;;;;18.56;100.00;102016.66;5014759;28;20033;-75
2023/09/26 09:25:15;;;;;;;7.65;5.03;;;;;;;18.61;100.00;102017.38;5056851;28;20050;-75
2023/09/26 09:27:43;;;;;;;6.90;4.47;;;;;;;18.69;100.00;102005.56;5036796;28;20046;-75
2023/09/26 09:30:19;;;;;;;4.70;4.25;;;;;;;18.89;100.00;101996.88;5023540;28;20041;-75
2023/09/26 09:32:45;;;;;;;6.45;4.72;;;;;;;19.01;100.00;101990.25;5015816;28;20036;-75
2023/09/26 09:35:13;;;;;;;7.75;4.32;;;;;;;19.24;100.00;101991.09;5040421;28;20037;-75
2023/09/26 09:37:40;;;;;;;6.45;4.22;;;;;;;19.39;100.00;101993.06;5047094;28;20026;-75
2023/09/26 09:40:06;;;;;;;8.60;4.10;;;;;;;19.44;100.00;101998.19;5018828;28;20041;-75
2023/09/26 09:42:32;;;;;;;9.75;4.40;;;;;;;19.53;100.00;101989.88;5039866;28;20019;-76
2023/09/26 09:44:57;;;;;;;6.07;4.40;;;;;;;19.68;100.00;101983.06;5013864;28;20030;-76
2023/09/26 09:47:23;;;;;;;4.97;3.90;;;;;;;19.72;100.00;101969.66;5013775;28;20079;-76
2023/09/26 09:49:51;;;;;;;6.20;3.70;;;;;;;19.82;100.00;101960.38;5004307;28;20028;-76
2023/09/26 09:52:19;;;;;;;4.28;3.50;;;;;;;19.90;100.00;101965.31;5011621;28;20392;-76
2023/09/26 09:54:45;;;;;;;5.85;3.75;;;;;;;19.95;100.00;101975.72;5023646;28;20034;-75
2023/09/26 09:57:14;;;;;;;6.00;3.80;;;;;;;19.99;100.00;101977.31;5018257;28;20029;-75
2023/09/26 09:59:42;;;;;;;6.78;3.70;;;;;;;20.02;100.00;101972.72;5019835;28;20035;-76
2023/09/26 10:02:10;;;;;;;7.38;4.30;;;;;;;20.07;100.00;101980.44;5017111;28;20142;-76
2023/09/26 10:04:39;;;;;;;6.38;3.50;;;;;;;19.95;100.00;101963.34;5021127;28;20041;-77
2023/09/26 10:07:04;;;;;;;6.45;4.30;;;;;;;20.06;100.00;101976.09;5011027;28;20025;-76
2023/09/26 10:09:32;;;;;;;7.80;3.75;;;;;;;20.06;100.00;101968.16;5021689;28;20530;-76
2023/09/26 10:11:59;;;;;;;6.00;3.95;;;;;;;20.08;100.00;101971.59;5033837;28;20384;-76
2023/09/26 10:14:29;;;;;;;9.10;4.15;;;;;;;20.09;100.00;101979.47;5039537;28;20033;-76
2023/09/26 10:16:56;;;;;;;4.80;3.53;;;;;;;20.12;100.00;101975.81;5026492;28;20025;-76
2023/09/26 10:19:25;;;;;;;11.43;4.68;;;;;;;20.05;100.00;101974.38;5026444;28;20104;-76
2023/09/26 10:21:52;;;;;;;6.03;4.15;;;;;;;20.02;100.00;101971.88;5026387;28;20037;-76
2023/09/26 10:24:18;;;;;;;8.73;4.50;;;;;;;19.99;100.00;101974.66;5009361;28;20038;-76
2023/09/26 10:26:45;;;;;;;8.57;4.53;;;;;;;20.00;100.00;101973.72;5023697;28;20380;-76
2023/09/26 10:29:19;;;;;;;5.63;4.50;;;;;;;20.00;100.00;101973.72;5019382;28;20036;-76
2023/09/26 10:31:55;;;;;;;7.55;3.80;;;;;;;20.06;100.00;101971.66;5021167;28;20033;-76
2023/09/26 10:34:27;;;;;;;5.00;3.45;;;;;;;20.19;100.00;101974.59;5016326;28;20026;-76
2023/09/26 10:36:54;;;;;;;4.80;4.13;;;;;;;20.32;100.00;101966.94;5014426;28;20038;-76
2023/09/26 10:39:32;;;;;;;6.30;3.28;;;;;;;20.33;100.00;101966.00;5025803;28;20074;-76
2023/09/26 10:42:22;;;;;;;9.15;3.85;;;;;;;20.32;100.00;101956.38;5024451;28;20061;-76
2023/09/26 10:44:51;;;;;;;4.90;4.13;;;;;;;20.15;100.00;101946.56;5019207;28;20049;-76
2023/09/26 10:47:25;;;;;;;7.30;4.20;;;;;;;20.16;100.00;101964.16;5009384;28;20104;-76
2023/09/26 10:49:50;;;;;;;7.68;4.38;;;;;;;20.02;100.00;101961.28;5020387;28;20021;-76
2023/09/26 10:52:16;;;;;;;7.35;4.30;;;;;;;20.03;100.00;101963.00;5021780;28;20104;-75
2023/09/26 10:54:42;;;;;;;6.07;4.22;;;;;;;20.10;100.00;101960.00;5021475;28;20026;-76
2023/09/26 10:57:18;;;;;;;6.53;4.47;;;;;;;20.16;100.00;101942.97;5021044;28;20483;-76
2023/09/26 10:59:43;;;;;;;5.05;3.25;;;;;;;20.34;100.00;101944.78;5015545;28;20048;-77
2023/09/26 11:02:09;;;;;;;5.80;4.00;;;;;;;20.58;100.00;101952.50;5022039;28;20021;-77
2023/09/26 11:04:35;;;;;;;5.40;4.05;;;;;;;20.73;100.00;101954.44;5041492;28;20039;-77
2023/09/26 11:07:02;;;;;;;6.10;3.55;;;;;;;20.90;100.00;101963.34;5021324;28;20073;-77
2023/09/26 11:09:28;;;;;;;4.90;4.22;;;;;;;21.00;100.00;101967.28;5024960;28;20025;-77
2023/09/26 11:11:56;;;;;;;5.43;3.50;;;;;;;20.94;100.00;101968.41;5022237;28;20096;-78
2023/09/26 11:14:26;;;;;;;6.70;4.18;;;;;;;20.98;100.00;101975.28;5017654;28;20037;-77
2023/09/26 11:16:52;;;;;;;8.48;3.90;;;;;;;21.01;100.00;101961.88;5021893;28;20025;-77
2023/09/26 11:19:18;;;;;;;6.18;3.60;;;;;;;20.91;100.00;101943.84;5018345;28;20037;-77
2023/09/26 11:21:43;;;;;;;7.82;4.40;;;;;;;20.97;100.00;101951.50;5026331;28;20026;-77
2023/09/26 11:24:19;;;;;;;6.20;4.88;;;;;;;21.03;100.00;101951.22;5004468;28;20068;-77
2023/09/26 11:26:45;;;;;;;7.25;3.58;;;;;;;20.99;100.00;101947.84;5004601;28;20164;-78
2023/09/26 11:29:10;;;;;;;4.78;3.83;;;;;;;21.07;100.00;101952.78;5018271;28;20972;-77
2023/09/26 11:31:36;;;;;;;8.43;4.28;;;;;;;21.00;100.00;101952.22;5014598;28;20029;-77
2023/09/26 11:34:02;;;;;;;6.07;4.40;;;;;;;21.07;100.00;101942.16;5018843;28;20038;-76